This is the latest recevied weather packets stored in our database for station/object LU5DTF-1. If no packets are shown the sender has not sent any weather packets the latest 1 day(s).
| Time | Temp. | Humidity | Pressure | Rain* | Wind** | Luminosity | Snow |
|---|---|---|---|---|---|---|---|
| 1778003701 | 18.33° C | 60% | 1013.6 hPa | 0 mm | 3.13 m/s, 232° | - | - |
| 1778003401 | 18.33° C | 61% | 1013.7 hPa | 0 mm | 2.68 m/s, 231° | - | - |
| 1778003101 | 18.33° C | 61% | 1013.6 hPa | 0 mm | 2.68 m/s, 228° | - | - |
| 1778002801 | 18.33° C | 61% | 1013.4 hPa | 0 mm | 2.68 m/s, 219° | - | - |
| 1778002501 | 18.89° C | 61% | 1013.1 hPa | 0 mm | 3.13 m/s, 220° | - | - |
| 1778002201 | 18.89° C | 60% | 1013.2 hPa | 0 mm | 4.02 m/s, 225° | - | - |
| 1778001901 | 18.89° C | 59% | 1013.3 hPa | 0 mm | 4.47 m/s, 224° | - | - |
| 1778001602 | 18.89° C | 59% | 1013.3 hPa | 0 mm | 4.02 m/s, 217° | - | - |
| 1778001301 | 18.89° C | 59% | 1013 hPa | 0 mm | 3.58 m/s, 212° | - | - |
| 1778001002 | 18.89° C | 59% | 1013.1 hPa | 0 mm | 3.13 m/s, 204° | - | - |
| 1778000701 | 18.89° C | 62% | 1013.2 hPa | 0 mm | 2.68 m/s, 199° | - | - |
| 1778000402 | 18.89° C | 61% | 1013.4 hPa | 0 mm | 2.24 m/s, 210° | - | - |
| 1778000102 | 18.89° C | 62% | 1013.4 hPa | 0 mm | 1.79 m/s, 202° | - | - |
| 1777999801 | 18.89° C | 67% | 1013.5 hPa | 0 mm | 1.79 m/s, 196° | - | - |
| 1777999501 | 18.33° C | 69% | 1013.5 hPa | 0 mm | 1.34 m/s, 196° | - | - |
| 1777999201 | 18.33° C | 71% | 1013.4 hPa | 0 mm | 1.34 m/s, 184° | - | - |
| 1777998901 | 18.33° C | 71% | 1013.4 hPa | 0 mm | 1.34 m/s, 167° | - | - |
| 1777998601 | 18.33° C | 71% | 1013.4 hPa | 0 mm | 1.79 m/s, 157° | - | - |
| 1777998301 | 18.33° C | 70% | 1013.2 hPa | 0 mm | 1.79 m/s, 158° | - | - |
| 1777998001 | 18.89° C | 68% | 1013.4 hPa | 0 mm | 1.79 m/s, 171° | - | - |
| 1777997701 | 20° C | 64% | 1013.3 hPa | 0 mm | 2.68 m/s, 209° | - | - |
| 1777997401 | 20.56° C | 61% | 1013.3 hPa | 0 mm | 2.68 m/s, 226° | - | - |
| 1777997101 | 20.56° C | 58% | 1013.4 hPa | 0 mm | 1.34 m/s, 243° | - | - |
| 1777996802 | 20° C | 63% | 1013.5 hPa | 0 mm | 0.45 m/s, 286° | - | - |
| 1777996501 | 19.44° C | 64% | 1013.6 hPa | 0 mm | 0 m/s | - | - |
* Rain latest hour (hover to see other rain measurements)
** Current wind speed in m/s (hover to see current wind gust speed)